Time;durP1;ratioP1;P1;durP2;ratioP2;P2;SDS_P1;SDS_P2;PMS_P1;PMS_P2;Temp;Humidity;BMP_temperature;BMP_pressure;BME280_temperature;BME280_humidity;BME280_pressure;Samples;Min_cycle;Max_cycle;Signal;HPM_P1;HPM_P2
2023/08/11 00:01:42;;;;;;;0.00;0.00;;;15.90;99.90;;;;;;5091453;28;20179;-59
2023/08/11 00:04:08;;;;;;;0.00;0.00;;;15.90;99.90;;;;;;5091374;28;20176;-59
2023/08/11 00:06:33;;;;;;;0.00;0.00;;;15.90;99.90;;;;;;5091387;28;20164;-59
2023/08/11 00:08:59;;;;;;;0.00;0.00;;;15.90;99.90;;;;;;5091289;28;20180;-59
2023/08/11 00:11:26;;;;;;;0.00;0.00;;;15.80;99.90;;;;;;5091344;28;20640;-59
2023/08/11 00:13:51;;;;;;;0.00;0.00;;;15.80;99.90;;;;;;5091398;28;20261;-59
2023/08/11 00:16:18;;;;;;;0.00;0.00;;;15.80;99.90;;;;;;5091294;28;20995;-59
2023/08/11 00:18:44;;;;;;;0.00;0.00;;;15.80;99.90;;;;;;5091209;28;20695;-59
2023/08/11 00:21:09;;;;;;;0.00;0.00;;;15.80;99.90;;;;;;5091257;28;20202;-59
2023/08/11 00:23:39;;;;;;;0.00;0.00;;;15.70;99.90;;;;;;5091319;28;20690;-59
2023/08/11 00:26:05;;;;;;;0.00;0.00;;;15.70;99.90;;;;;;5091226;28;20255;-59
2023/08/11 00:28:31;;;;;;;0.22;0.22;;;15.60;99.90;;;;;;5092058;28;20239;-59
2023/08/11 00:30:57;;;;;;;0.00;0.00;;;15.60;99.90;;;;;;5094823;28;20168;-59
2023/08/11 00:33:23;;;;;;;0.00;0.00;;;15.60;99.90;;;;;;5094799;28;20214;-59
2023/08/11 00:35:48;;;;;;;0.00;0.00;;;15.60;99.90;;;;;;5094873;28;20206;-59
2023/08/11 00:38:14;;;;;;;0.00;0.00;;;15.60;99.90;;;;;;5094570;28;20204;-59
2023/08/11 00:40:39;;;;;;;0.00;0.00;;;15.60;99.90;;;;;;5094535;28;20554;-59
2023/08/11 00:43:05;;;;;;;0.00;0.00;;;15.60;99.90;;;;;;5094656;28;20184;-59
2023/08/11 00:45:30;;;;;;;0.00;0.00;;;15.50;99.90;;;;;;5094620;28;20160;-59
2023/08/11 00:47:56;;;;;;;0.00;0.00;;;15.50;99.90;;;;;;5094544;28;20179;-59
2023/08/11 00:50:22;;;;;;;0.00;0.00;;;15.50;99.90;;;;;;5094335;28;20179;-59
2023/08/11 00:52:49;;;;;;;0.00;0.00;;;15.50;99.90;;;;;;5094491;28;20534;-59
2023/08/11 00:55:18;;;;;;;0.22;0.17;;;15.50;99.90;;;;;;5094350;28;20183;-59
2023/08/11 00:57:44;;;;;;;0.00;0.00;;;15.50;99.90;;;;;;5094288;28;20230;-59
2023/08/11 01:00:14;;;;;;;0.00;0.00;;;15.40;99.90;;;;;;5094196;28;20180;-59
2023/08/11 01:02:42;;;;;;;0.00;0.00;;;15.40;99.90;;;;;;5092884;28;20679;-59
2023/08/11 01:05:18;;;;;;;0.00;0.00;;;15.40;99.90;;;;;;5094103;28;20187;-59
2023/08/11 01:08:08;;;;;;;0.00;0.00;;;15.40;99.90;;;;;;5094128;28;20172;-59
2023/08/11 01:10:45;;;;;;;0.00;0.00;;;15.40;99.90;;;;;;5094238;28;20187;-59
2023/08/11 01:13:20;;;;;;;0.00;0.00;;;15.40;99.90;;;;;;5094095;28;20258;-59
2023/08/11 01:16:00;;;;;;;0.00;0.00;;;15.40;99.90;;;;;;5094047;28;20274;-59
2023/08/11 01:18:29;;;;;;;0.08;0.08;;;15.30;99.90;;;;;;5093992;28;20215;-59
2023/08/11 01:20:59;;;;;;;0.00;0.00;;;15.30;99.90;;;;;;5093857;28;20179;-59
2023/08/11 01:23:25;;;;;;;0.00;0.00;;;15.30;99.90;;;;;;5093805;28;20183;-58
2023/08/11 01:25:52;;;;;;;0.00;0.00;;;15.20;99.90;;;;;;5093766;28;20266;-59
2023/08/11 01:28:17;;;;;;;0.00;0.00;;;15.20;99.90;;;;;;5093491;28;20276;-59
2023/08/11 01:30:43;;;;;;;0.00;0.00;;;15.20;99.90;;;;;;5092479;28;20172;-59
2023/08/11 01:33:09;;;;;;;0.00;0.00;;;15.10;99.90;;;;;;5093681;28;20180;-59
2023/08/11 01:35:34;;;;;;;0.00;0.00;;;15.10;99.90;;;;;;5093628;28;20196;-59
2023/08/11 01:38:00;;;;;;;0.00;0.00;;;15.10;99.90;;;;;;5093342;28;20214;-59
2023/08/11 01:40:26;;;;;;;0.00;0.00;;;15.00;99.90;;;;;;5092628;28;20198;-59
2023/08/11 01:42:56;;;;;;;0.00;0.00;;;15.00;99.90;;;;;;5093512;28;20176;-59
2023/08/11 01:45:22;;;;;;;0.20;0.20;;;15.00;99.90;;;;;;5093236;28;20593;-58
2023/08/11 01:47:49;;;;;;;0.47;0.47;;;15.00;99.90;;;;;;5093385;28;20180;-59
2023/08/11 01:50:16;;;;;;;0.10;0.10;;;15.00;99.90;;;;;;5093250;28;20172;-59
2023/08/11 01:52:43;;;;;;;0.00;0.00;;;14.90;99.90;;;;;;5093151;28;20218;-59
2023/08/11 01:55:10;;;;;;;0.00;0.00;;;14.90;99.90;;;;;;5093030;28;20179;-59
2023/08/11 01:57:38;;;;;;;0.00;0.00;;;14.90;99.90;;;;;;5093077;28;20187;-58
2023/08/11 02:00:09;;;;;;;0.00;0.00;;;14.90;99.90;;;;;;5093035;28;20213;-58
2023/08/11 02:02:37;;;;;;;0.00;0.00;;;14.90;99.90;;;;;;5093187;28;20295;-59
2023/08/11 02:05:06;;;;;;;0.25;0.25;;;14.90;99.90;;;;;;5092969;28;20184;-59
2023/08/11 02:07:31;;;;;;;0.00;0.00;;;14.80;99.90;;;;;;5092785;28;20255;-59
2023/08/11 02:09:57;;;;;;;0.00;0.00;;;14.80;99.90;;;;;;5092690;28;20363;-59
2023/08/11 02:12:22;;;;;;;0.00;0.00;;;14.80;99.90;;;;;;5092529;28;20190;-59
2023/08/11 02:14:48;;;;;;;0.00;0.00;;;14.80;99.90;;;;;;5092668;28;20207;-59
2023/08/11 02:17:13;;;;;;;0.00;0.00;;;14.80;99.90;;;;;;5092483;28;20172;-59
2023/08/11 02:19:39;;;;;;;0.00;0.00;;;14.70;99.90;;;;;;5092407;28;20289;-59
2023/08/11 02:22:05;;;;;;;0.00;0.00;;;14.70;99.90;;;;;;5092521;28;20958;-58
2023/08/11 02:24:30;;;;;;;0.15;0.15;;;14.70;99.90;;;;;;5092531;28;20195;-59
2023/08/11 02:26:56;;;;;;;0.00;0.00;;;14.60;99.90;;;;;;5092444;28;20176;-59
2023/08/11 02:29:22;;;;;;;0.00;0.00;;;14.60;99.90;;;;;;5091956;28;20228;-59
2023/08/11 02:31:48;;;;;;;0.00;0.00;;;14.60;99.90;;;;;;5092382;28;20187;-58
2023/08/11 02:34:13;;;;;;;0.00;0.00;;;14.60;99.90;;;;;;5092246;28;20216;-58
2023/08/11 02:36:39;;;;;;;0.00;0.00;;;14.60;99.90;;;;;;5092193;28;20647;-59
2023/08/11 02:39:08;;;;;;;0.00;0.00;;;14.60;99.90;;;;;;5092009;28;20253;-58
2023/08/11 02:41:34;;;;;;;0.00;0.00;;;14.50;99.90;;;;;;5092266;28;20262;-58
2023/08/11 02:44:00;;;;;;;0.00;0.00;;;14.50;99.90;;;;;;5091967;28;20210;-58
2023/08/11 02:46:26;;;;;;;0.00;0.00;;;14.60;99.90;;;;;;5092142;28;20211;-58
2023/08/11 02:48:51;;;;;;;0.00;0.00;;;14.50;99.90;;;;;;5092107;28;20175;-58
2023/08/11 02:51:17;;;;;;;0.00;0.00;;;14.50;99.90;;;;;;5091793;28;20630;-58
2023/08/11 02:53:43;;;;;;;0.00;0.00;;;14.50;99.90;;;;;;5092018;28;20188;-58
2023/08/11 02:56:11;;;;;;;0.08;0.08;;;14.40;99.90;;;;;;5091903;28;20194;-58
2023/08/11 02:58:37;;;;;;;0.00;0.00;;;14.40;99.90;;;;;;5091928;28;20249;-58
2023/08/11 03:01:03;;;;;;;0.10;0.10;;;14.40;99.90;;;;;;5091701;28;20210;-58
2023/08/11 03:03:29;;;;;;;0.10;0.10;;;14.40;99.90;;;;;;5091660;28;20207;-58
2023/08/11 03:05:56;;;;;;;0.10;0.10;;;14.30;99.90;;;;;;5091803;28;20180;-59
2023/08/11 03:08:22;;;;;;;0.00;0.00;;;14.40;99.90;;;;;;5091709;28;20538;-58
2023/08/11 03:10:47;;;;;;;0.00;0.00;;;14.40;99.90;;;;;;5091665;28;20175;-58
2023/08/11 03:13:13;;;;;;;0.00;0.00;;;14.40;99.90;;;;;;5091665;28;20175;-58
2023/08/11 03:15:39;;;;;;;0.00;0.00;;;14.30;99.90;;;;;;5091729;28;20187;-58
2023/08/11 03:18:04;;;;;;;0.00;0.00;;;14.20;99.90;;;;;;5091512;28;20595;-58
2023/08/11 03:20:30;;;;;;;0.00;0.00;;;14.20;99.90;;;;;;5091553;28;20674;-58
2023/08/11 03:22:55;;;;;;;0.00;0.00;;;14.20;99.90;;;;;;5091621;28;20184;-58
2023/08/11 03:25:21;;;;;;;0.00;0.00;;;14.20;99.90;;;;;;5091454;28;20203;-58
2023/08/11 03:27:47;;;;;;;0.00;0.00;;;14.20;99.90;;;;;;5091342;28;20176;-58
2023/08/11 03:30:12;;;;;;;0.00;0.00;;;14.20;99.90;;;;;;5091374;28;20532;-58
2023/08/11 03:32:38;;;;;;;0.00;0.00;;;14.20;99.90;;;;;;5091553;28;20187;-58
2023/08/11 03:35:05;;;;;;;0.10;0.10;;;14.20;99.90;;;;;;5091387;28;20201;-58
2023/08/11 03:37:32;;;;;;;0.10;0.10;;;14.20;99.90;;;;;;5091314;28;20184;-58
2023/08/11 03:39:58;;;;;;;0.10;0.10;;;14.10;99.90;;;;;;5091300;28;20713;-58
2023/08/11 03:42:23;;;;;;;0.00;0.00;;;14.10;99.90;;;;;;5091422;28;20176;-58
2023/08/11 03:44:51;;;;;;;0.00;0.00;;;14.10;99.90;;;;;;5091265;28;20262;-58
2023/08/11 03:47:17;;;;;;;0.10;0.10;;;14.10;99.90;;;;;;5091333;28;20647;-58
2023/08/11 03:49:42;;;;;;;0.00;0.00;;;14.10;99.90;;;;;;5091329;28;20647;-59
2023/08/11 03:52:08;;;;;;;0.00;0.00;;;14.10;99.90;;;;;;5091182;28;20191;-58
2023/08/11 03:54:33;;;;;;;0.00;0.00;;;14.10;99.90;;;;;;5091356;28;20179;-58
2023/08/11 03:56:59;;;;;;;0.00;0.00;;;14.10;99.90;;;;;;5091138;28;20183;-59
2023/08/11 03:59:24;;;;;;;0.00;0.00;;;14.10;99.90;;;;;;5091163;28;20237;-58
2023/08/11 04:01:50;;;;;;;0.00;0.00;;;14.10;99.90;;;;;;5091153;28;20211;-58
2023/08/11 04:04:15;;;;;;;0.00;0.00;;;14.10;99.90;;;;;;5093363;28;20310;-58
2023/08/11 04:06:41;;;;;;;0.00;0.00;;;14.20;99.90;;;;;;5095070;28;20229;-59
2023/08/11 04:09:07;;;;;;;0.00;0.00;;;14.20;99.90;;;;;;5095017;28;20253;-59
2023/08/11 04:11:32;;;;;;;0.00;0.00;;;14.20;99.90;;;;;;5095016;28;20187;-59
2023/08/11 04:13:58;;;;;;;0.00;0.00;;;14.20;99.90;;;;;;5095029;28;20557;-60
2023/08/11 04:16:24;;;;;;;0.00;0.00;;;14.20;99.90;;;;;;5094843;28;20612;-59
2023/08/11 04:18:50;;;;;;;0.00;0.00;;;14.20;99.90;;;;;;5094747;28;20307;-59
2023/08/11 04:21:15;;;;;;;0.00;0.00;;;14.30;99.90;;;;;;5094706;28;20267;-59
2023/08/11 04:23:41;;;;;;;0.00;0.00;;;14.30;99.90;;;;;;5094690;28;20245;-60
2023/08/11 04:26:06;;;;;;;0.00;0.00;;;14.30;99.90;;;;;;5094919;28;20273;-59
2023/08/11 04:28:32;;;;;;;0.00;0.00;;;14.30;99.90;;;;;;5094527;28;20216;-59
2023/08/11 04:31:00;;;;;;;0.00;0.00;;;14.30;99.90;;;;;;5094678;28;20172;-60
2023/08/11 04:33:26;;;;;;;0.00;0.00;;;14.40;99.90;;;;;;5094506;28;20176;-59
2023/08/11 04:35:51;;;;;;;0.10;0.10;;;14.40;99.90;;;;;;5094248;28;20562;-59
2023/08/11 04:38:17;;;;;;;0.00;0.00;;;14.40;99.90;;;;;;5094289;28;20212;-60
2023/08/11 04:40:43;;;;;;;0.00;0.00;;;14.40;99.90;;;;;;5094207;28;20172;-59
2023/08/11 04:43:08;;;;;;;0.00;0.00;;;14.50;99.90;;;;;;5094091;28;20233;-59
2023/08/11 04:45:34;;;;;;;0.05;0.05;;;14.50;99.90;;;;;;5094216;28;20648;-59
2023/08/11 04:48:00;;;;;;;0.00;0.00;;;14.60;99.90;;;;;;5092736;28;20172;-59
2023/08/11 04:50:26;;;;;;;0.00;0.00;;;14.60;99.90;;;;;;5094152;28;20193;-59
2023/08/11 04:52:52;;;;;;;0.00;0.00;;;14.70;99.90;;;;;;5093934;28;20578;-59
2023/08/11 04:55:17;;;;;;;0.10;0.10;;;14.70;99.90;;;;;;5093985;28;20187;-59
2023/08/11 04:57:43;;;;;;;0.00;0.00;;;14.80;99.90;;;;;;5093932;28;20610;-59
2023/08/11 05:00:13;;;;;;;0.00;0.00;;;14.80;99.90;;;;;;5093744;28;20207;-59
2023/08/11 05:02:41;;;;;;;0.00;0.00;;;14.90;99.90;;;;;;5094033;28;20204;-59
2023/08/11 05:05:08;;;;;;;0.20;0.20;;;15.10;99.90;;;;;;5093726;28;20192;-60
2023/08/11 05:07:33;;;;;;;0.00;0.00;;;15.30;99.90;;;;;;5093710;28;20179;-60
2023/08/11 05:09:59;;;;;;;0.00;0.00;;;15.50;99.90;;;;;;5093782;28;20184;-60
2023/08/11 05:12:24;;;;;;;0.00;0.00;;;15.70;99.90;;;;;;5093913;28;20549;-60
2023/08/11 05:14:50;;;;;;;0.00;0.00;;;16.00;99.90;;;;;;5093484;28;20203;-60
2023/08/11 05:17:16;;;;;;;0.00;0.00;;;16.30;99.90;;;;;;5093483;28;20176;-60
2023/08/11 05:19:42;;;;;;;0.00;0.00;;;16.70;99.90;;;;;;5093620;28;20251;-60
2023/08/11 05:22:07;;;;;;;0.00;0.00;;;17.00;99.90;;;;;;5093491;28;20175;-60
2023/08/11 05:24:33;;;;;;;0.00;0.00;;;17.30;99.90;;;;;;5093246;28;20214;-60
2023/08/11 05:26:58;;;;;;;0.00;0.00;;;17.60;99.90;;;;;;5093379;28;20172;-60
2023/08/11 05:29:24;;;;;;;0.00;0.00;;;17.90;99.90;;;;;;5093184;28;20239;-60
2023/08/11 05:31:49;;;;;;;0.00;0.00;;;18.30;99.90;;;;;;5093115;28;20209;-60
2023/08/11 05:34:15;;;;;;;0.03;0.03;;;18.50;99.90;;;;;;5093192;28;20216;-60
2023/08/11 05:36:40;;;;;;;0.00;0.00;;;18.80;99.90;;;;;;5093197;28;20176;-60
2023/08/11 05:39:08;;;;;;;0.00;0.00;;;19.00;99.90;;;;;;5092998;28;20679;-60
2023/08/11 05:41:34;;;;;;;0.08;0.08;;;19.30;99.90;;;;;;5093190;28;20238;-60
2023/08/11 05:43:59;;;;;;;0.00;0.00;;;19.60;99.90;;;;;;5093021;28;20188;-60
2023/08/11 05:46:25;;;;;;;0.00;0.00;;;19.90;99.90;;;;;;5093079;28;20168;-59
2023/08/11 05:48:51;;;;;;;0.00;0.00;;;20.30;99.90;;;;;;5092771;28;20183;-60
2023/08/11 05:51:16;;;;;;;0.10;0.10;;;20.70;99.90;;;;;;5091644;28;20234;-60
2023/08/11 05:53:42;;;;;;;0.10;0.10;;;21.10;99.90;;;;;;5092872;28;20661;-60
2023/08/11 05:56:08;;;;;;;0.00;0.00;;;21.50;99.90;;;;;;5093147;28;20168;-60
2023/08/11 05:58:33;;;;;;;0.00;0.00;;;21.80;99.90;;;;;;5092821;28;20302;-60
2023/08/11 06:01:01;;;;;;;0.00;0.00;;;22.30;99.90;;;;;;5093043;28;20180;-60
2023/08/11 06:03:30;;;;;;;0.00;0.00;;;22.70;99.90;;;;;;5093209;28;20179;-60
2023/08/11 06:06:04;;;;;;;0.00;0.00;;;23.20;99.90;;;;;;5093038;28;20585;-60
2023/08/11 06:08:30;;;;;;;0.00;0.00;;;23.60;99.90;;;;;;5092967;28;20191;-60
2023/08/11 06:10:55;;;;;;;0.10;0.03;;;24.00;99.30;;;;;;5093133;28;20512;-60
2023/08/11 06:13:22;;;;;;;0.00;0.00;;;24.30;98.40;;;;;;5092840;28;20172;-60
2023/08/11 06:15:49;;;;;;;0.10;0.10;;;24.60;97.90;;;;;;5092925;28;20176;-60
2023/08/11 06:18:14;;;;;;;0.00;0.00;;;25.00;97.50;;;;;;5092618;28;20204;-60
2023/08/11 06:20:40;;;;;;;0.00;0.00;;;25.40;97.10;;;;;;5092883;28;20184;-60
2023/08/11 06:23:06;;;;;;;0.00;0.00;;;25.70;96.00;;;;;;5091503;28;20172;-61
2023/08/11 06:25:32;;;;;;;0.00;0.00;;;26.10;95.20;;;;;;5092589;28;20185;-60
2023/08/11 06:27:57;;;;;;;0.00;0.00;;;26.50;94.70;;;;;;5092087;28;20176;-60
2023/08/11 06:30:23;;;;;;;0.00;0.00;;;26.90;93.70;;;;;;5092585;28;20176;-60
2023/08/11 06:32:48;;;;;;;0.00;0.00;;;27.20;93.10;;;;;;5092594;28;20180;-60
2023/08/11 06:35:14;;;;;;;0.00;0.00;;;27.60;92.10;;;;;;5092466;28;20665;-60
2023/08/11 06:37:39;;;;;;;0.00;0.00;;;28.00;91.40;;;;;;5092446;28;20215;-60
2023/08/11 06:40:06;;;;;;;0.00;0.00;;;28.40;90.20;;;;;;5092412;28;20172;-61
2023/08/11 06:42:31;;;;;;;0.00;0.00;;;28.80;89.00;;;;;;5092367;28;20176;-60
2023/08/11 06:44:57;;;;;;;0.00;0.00;;;29.10;87.40;;;;;;5092390;28;20337;-60
2023/08/11 06:47:23;;;;;;;0.00;0.00;;;29.50;85.60;;;;;;5092247;28;20179;-60
2023/08/11 06:49:49;;;;;;;0.00;0.00;;;29.80;84.60;;;;;;5092192;28;20168;-59
2023/08/11 06:52:14;;;;;;;0.00;0.00;;;30.20;81.10;;;;;;5092158;28;20538;-61
2023/08/11 06:54:40;;;;;;;0.00;0.00;;;30.60;79.30;;;;;;5092272;28;20263;-60
2023/08/11 06:57:06;;;;;;;0.00;0.00;;;30.90;77.40;;;;;;5092107;28;20635;-60
2023/08/11 06:59:31;;;;;;;0.00;0.00;;;31.20;76.50;;;;;;5090614;28;20211;-60
2023/08/11 07:01:57;;;;;;;0.00;0.00;;;31.50;74.60;;;;;;5091979;28;20167;-60
2023/08/11 07:04:23;;;;;;;0.00;0.00;;;31.80;72.80;;;;;;5092142;28;20194;-60
2023/08/11 07:06:48;;;;;;;0.00;0.00;;;32.20;71.60;;;;;;5092070;28;20183;-60
2023/08/11 07:09:14;;;;;;;0.00;0.00;;;32.50;69.10;;;;;;5091923;28;20653;-60
2023/08/11 07:11:39;;;;;;;0.00;0.00;;;32.60;69.00;;;;;;5092065;28;20183;-60
2023/08/11 07:14:05;;;;;;;0.00;0.00;;;32.70;68.40;;;;;;5091835;28;20179;-61
2023/08/11 07:16:31;;;;;;;0.00;0.00;;;32.90;67.00;;;;;;5091879;28;20175;-60
2023/08/11 07:18:56;;;;;;;0.20;0.20;;;33.10;66.40;;;;;;5091707;28;20218;-60
2023/08/11 07:21:22;;;;;;;0.00;0.00;;;33.30;66.10;;;;;;5091915;28;20176;-61
2023/08/11 07:23:47;;;;;;;0.00;0.00;;;33.40;64.30;;;;;;5091830;28;20176;-60
2023/08/11 07:26:13;;;;;;;0.00;0.00;;;33.50;64.90;;;;;;5091695;28;20164;-60
2023/08/11 07:28:38;;;;;;;0.00;0.00;;;33.60;64.50;;;;;;5091648;28;20219;-60
2023/08/11 07:31:04;;;;;;;0.00;0.00;;;33.70;63.90;;;;;;5091697;28;20168;-60
2023/08/11 07:33:30;;;;;;;0.00;0.00;;;33.90;62.20;;;;;;5091662;28;20274;-60
2023/08/11 07:35:55;;;;;;;0.80;0.20;;;34.20;61.40;;;;;;5091737;28;20653;-60
2023/08/11 07:38:21;;;;;;;0.10;0.00;;;34.30;60.50;;;;;;5092243;28;20199;-60
2023/08/11 07:40:49;;;;;;;0.00;0.00;;;34.40;61.00;;;;;;5095848;28;20266;-60
2023/08/11 07:43:15;;;;;;;0.05;0.05;;;34.30;61.10;;;;;;5095763;28;20225;-60
2023/08/11 07:45:40;;;;;;;0.03;0.00;;;34.40;61.00;;;;;;5095713;28;20187;-60
2023/08/11 07:48:06;;;;;;;0.00;0.00;;;34.50;59.70;;;;;;5095719;28;20198;-60
2023/08/11 07:50:35;;;;;;;0.00;0.00;;;34.70;59.30;;;;;;5095614;28;20182;-59
2023/08/11 07:53:01;;;;;;;0.00;0.00;;;34.80;58.50;;;;;;5095519;28;20221;-60
2023/08/11 07:55:27;;;;;;;0.00;0.00;;;34.90;58.80;;;;;;5095594;28;20168;-59
2023/08/11 07:57:52;;;;;;;0.00;0.00;;;35.00;57.90;;;;;;5095298;28;20172;-59
2023/08/11 08:00:20;;;;;;;0.00;0.00;;;35.10;57.30;;;;;;5095436;28;20206;-59
2023/08/11 08:02:46;;;;;;;0.00;0.00;;;35.20;58.70;;;;;;5095458;28;20190;-59
2023/08/11 08:05:12;;;;;;;0.00;0.00;;;35.20;58.40;;;;;;5095200;28;20179;-59
2023/08/11 08:07:38;;;;;;;0.05;0.05;;;35.20;57.20;;;;;;5095335;28;20168;-59
2023/08/11 08:10:08;;;;;;;0.00;0.00;;;35.30;57.50;;;;;;5095211;28;20167;-59
2023/08/11 08:12:37;;;;;;;0.00;0.00;;;35.40;56.90;;;;;;5095291;28;20184;-59
2023/08/11 08:15:07;;;;;;;0.00;0.00;;;35.50;57.40;;;;;;5094978;28;20175;-60
2023/08/11 08:17:33;;;;;;;0.00;0.00;;;35.50;56.50;;;;;;5095080;28;20179;-59
2023/08/11 08:19:59;;;;;;;0.00;0.00;;;35.50;56.60;;;;;;5095041;28;20207;-59
2023/08/11 08:22:25;;;;;;;0.00;0.00;;;35.60;56.00;;;;;;5095023;28;20258;-59
2023/08/11 08:24:51;;;;;;;0.00;0.00;;;35.60;56.50;;;;;;5094938;28;20254;-59
2023/08/11 08:27:23;;;;;;;0.00;0.00;;;35.50;57.20;;;;;;5094944;28;20905;-60
2023/08/11 08:29:49;;;;;;;0.10;0.10;;;35.50;57.90;;;;;;5094646;28;20230;-60
2023/08/11 08:32:15;;;;;;;0.00;0.00;;;35.40;56.80;;;;;;5094767;28;20706;-59
2023/08/11 08:34:40;;;;;;;0.00;0.00;;;35.40;55.70;;;;;;5094928;28;20191;-59
2023/08/11 08:37:06;;;;;;;0.00;0.00;;;35.30;55.70;;;;;;5094783;28;20179;-59
2023/08/11 08:39:31;;;;;;;0.00;0.00;;;35.30;56.70;;;;;;5094649;28;20610;-59
2023/08/11 08:41:58;;;;;;;0.00;0.00;;;35.30;56.30;;;;;;5094731;28;20172;-59
2023/08/11 08:44:25;;;;;;;0.17;0.17;;;35.30;56.40;;;;;;5094602;28;20524;-60
2023/08/11 08:46:53;;;;;;;0.00;0.00;;;35.30;57.30;;;;;;5094488;28;20172;-59
2023/08/11 08:49:18;;;;;;;0.00;0.00;;;35.20;56.80;;;;;;5093963;28;20183;-59
2023/08/11 08:51:44;;;;;;;0.00;0.00;;;35.20;56.40;;;;;;5094479;28;20277;-59
2023/08/11 08:54:09;;;;;;;0.00;0.00;;;35.10;55.80;;;;;;5094313;28;20194;-59
2023/08/11 08:56:39;;;;;;;0.00;0.00;;;35.00;56.40;;;;;;5094455;28;20786;-59
2023/08/11 08:59:06;;;;;;;0.10;0.00;;;34.90;56.00;;;;;;5094119;28;20224;-59
2023/08/11 09:01:33;;;;;;;0.00;0.00;;;34.80;57.50;;;;;;5094301;28;20176;-59
2023/08/11 09:03:59;;;;;;;0.00;0.00;;;34.80;57.50;;;;;;5094268;28;20183;-60
2023/08/11 09:06:26;;;;;;;0.30;0.20;;;34.60;58.60;;;;;;5094411;28;20175;-60
2023/08/11 09:08:52;;;;;;;0.00;0.00;;;34.60;57.00;;;;;;5092788;28;20201;-60
2023/08/11 09:11:18;;;;;;;0.00;0.00;;;34.60;57.90;;;;;;5092881;28;20183;-60
2023/08/11 09:13:44;;;;;;;0.00;0.00;;;34.60;56.30;;;;;;5094105;28;20171;-59
2023/08/11 09:16:11;;;;;;;0.00;0.00;;;34.70;57.50;;;;;;5093909;28;20511;-59
2023/08/11 09:18:37;;;;;;;0.00;0.00;;;34.60;57.30;;;;;;5093925;28;20215;-59
2023/08/11 09:21:03;;;;;;;0.00;0.00;;;34.60;57.10;;;;;;5093834;28;20225;-59
2023/08/11 09:23:29;;;;;;;0.00;0.00;;;34.60;58.00;;;;;;5093715;28;20179;-59
2023/08/11 09:25:55;;;;;;;0.00;0.00;;;34.70;58.10;;;;;;5093862;28;20572;-59
2023/08/11 09:28:21;;;;;;;0.00;0.00;;;34.60;57.90;;;;;;5093452;28;20894;-60
2023/08/11 09:30:48;;;;;;;0.00;0.00;;;34.60;56.80;;;;;;5093700;28;20270;-60
2023/08/11 09:33:14;;;;;;;0.00;0.00;;;34.50;56.60;;;;;;5093480;28;20642;-60
2023/08/11 09:35:41;;;;;;;0.00;0.00;;;34.50;58.40;;;;;;5093650;28;20233;-60
2023/08/11 09:38:07;;;;;;;0.00;0.00;;;34.50;58.80;;;;;;5093459;28;20203;-60
2023/08/11 09:40:32;;;;;;;0.05;0.05;;;34.30;57.50;;;;;;5093473;28;20175;-58
2023/08/11 09:42:59;;;;;;;0.00;0.00;;;34.40;59.00;;;;;;5093482;28;20191;-58
2023/08/11 09:45:24;;;;;;;0.00;0.00;;;34.50;58.00;;;;;;5093407;28;20696;-58
2023/08/11 09:47:50;;;;;;;0.00;0.00;;;34.20;57.50;;;;;;5093353;28;20183;-58
2023/08/11 09:50:16;;;;;;;0.10;0.10;;;34.30;58.60;;;;;;5093272;28;20186;-58
2023/08/11 09:52:42;;;;;;;0.00;0.00;;;34.50;59.00;;;;;;5093363;28;20176;-58
2023/08/11 09:55:11;;;;;;;0.00;0.00;;;34.60;58.40;;;;;;5093299;28;20250;-59
2023/08/11 09:57:39;;;;;;;0.10;0.10;;;34.70;57.70;;;;;;5093311;28;20186;-60
2023/08/11 10:00:11;;;;;;;0.00;0.00;;;34.80;58.10;;;;;;5093203;28;20187;-60
2023/08/11 10:02:39;;;;;;;0.00;0.00;;;34.50;58.40;;;;;;5092407;28;20182;-60
2023/08/11 10:05:07;;;;;;;0.00;0.00;;;34.40;59.30;;;;;;5093035;28;20198;-60
2023/08/11 10:07:37;;;;;;;0.00;0.00;;;34.40;57.90;;;;;;5093068;28;20180;-60
2023/08/11 10:10:18;;;;;;;0.00;0.00;;;34.40;57.90;;;;;;5092891;28;20622;-60
2023/08/11 10:12:56;;;;;;;0.08;0.08;;;34.40;57.50;;;;;;5093053;28;20228;-60
2023/08/11 10:15:23;;;;;;;0.00;0.00;;;34.40;58.50;;;;;;5093043;28;20233;-60
2023/08/11 10:17:49;;;;;;;0.00;0.00;;;34.40;57.90;;;;;;5092850;28;20600;-60
2023/08/11 10:20:15;;;;;;;0.00;0.00;;;34.40;56.50;;;;;;5093082;28;20568;-60
2023/08/11 10:22:41;;;;;;;0.00;0.00;;;34.30;58.70;;;;;;5092840;28;20179;-60
2023/08/11 10:25:07;;;;;;;0.10;0.10;;;34.40;59.00;;;;;;5092647;28;20177;-60
2023/08/11 10:27:38;;;;;;;0.00;0.00;;;34.60;59.20;;;;;;5092536;28;20172;-61
2023/08/11 10:30:11;;;;;;;0.00;0.00;;;34.60;59.90;;;;;;5092422;28;20318;-61
2023/08/11 10:32:38;;;;;;;0.03;0.03;;;34.70;58.10;;;;;;5092639;28;20186;-60
2023/08/11 10:35:06;;;;;;;0.05;0.05;;;34.60;59.00;;;;;;5092494;28;20301;-60
2023/08/11 10:37:32;;;;;;;0.00;0.00;;;34.80;58.90;;;;;;5092600;28;20183;-60
2023/08/11 10:40:05;;;;;;;0.00;0.00;;;35.10;57.70;;;;;;5092415;28;20219;-60
2023/08/11 10:42:31;;;;;;;0.00;0.00;;;35.30;57.70;;;;;;5092406;28;20167;-60
2023/08/11 10:45:11;;;;;;;0.00;0.00;;;35.40;56.90;;;;;;5092462;28;20179;-60
2023/08/11 10:47:38;;;;;;;0.00;0.00;;;35.40;57.40;;;;;;5092317;28;20647;-60
2023/08/11 10:50:08;;;;;;;0.00;0.00;;;35.40;56.50;;;;;;5092209;28;20175;-60
2023/08/11 10:52:34;;;;;;;0.00;0.00;;;35.40;58.00;;;;;;5092213;28;20193;-60
2023/08/11 10:55:02;;;;;;;0.03;0.03;;;35.30;57.50;;;;;;5092165;28;20179;-60
2023/08/11 10:57:30;;;;;;;0.00;0.00;;;35.20;56.60;;;;;;5092265;28;20179;-60
2023/08/11 10:59:56;;;;;;;0.00;0.00;;;35.00;56.00;;;;;;5092053;28;20226;-60
2023/08/11 11:02:21;;;;;;;0.00;0.00;;;34.80;57.00;;;;;;5092049;28;20175;-60
2023/08/11 11:04:47;;;;;;;0.00;0.00;;;34.90;57.00;;;;;;5092132;28;20218;-60
2023/08/11 11:07:14;;;;;;;0.00;0.00;;;35.10;55.70;;;;;;5091914;28;20179;-60
2023/08/11 11:09:40;;;;;;;0.25;0.05;;;35.40;55.30;;;;;;5092099;28;20183;-61
2023/08/11 11:12:06;;;;;;;0.20;0.20;;;35.20;55.30;;;;;;5091813;28;20218;-60
2023/08/11 11:14:32;;;;;;;0.08;0.08;;;35.30;56.00;;;;;;5091961;28;20176;-60
2023/08/11 11:17:00;;;;;;;0.00;0.00;;;35.10;55.00;;;;;;5091835;28;20295;-60
2023/08/11 11:19:26;;;;;;;0.15;0.15;;;34.60;56.30;;;;;;5091789;28;20207;-60
2023/08/11 11:21:52;;;;;;;0.05;0.05;;;34.70;56.60;;;;;;5091750;28;20293;-60
2023/08/11 11:24:18;;;;;;;0.00;0.00;;;34.80;56.10;;;;;;5091803;28;20186;-60
2023/08/11 11:26:44;;;;;;;0.00;0.00;;;35.00;56.00;;;;;;5091924;28;20171;-60
2023/08/11 11:29:09;;;;;;;0.00;0.00;;;35.20;55.40;;;;;;5091394;28;20230;-60
2023/08/11 11:31:37;;;;;;;0.00;0.00;;;35.30;55.50;;;;;;5091822;28;20167;-61
2023/08/11 11:34:03;;;;;;;0.00;0.00;;;35.40;55.10;;;;;;5091679;28;20232;-61
2023/08/11 11:36:29;;;;;;;0.08;0.08;;;35.50;54.90;;;;;;5091837;28;20202;-61
2023/08/11 11:38:55;;;;;;;0.00;0.00;;;35.40;53.20;;;;;;5091690;28;20246;-60
2023/08/11 11:41:21;;;;;;;0.00;0.00;;;35.20;53.60;;;;;;5091609;28;20664;-60
2023/08/11 11:43:50;;;;;;;0.00;0.00;;;35.00;53.60;;;;;;5091689;28;20179;-61
2023/08/11 11:46:18;;;;;;;0.00;0.00;;;35.10;54.20;;;;;;5091583;28;20179;-61
2023/08/11 11:48:50;;;;;;;0.00;0.00;;;35.20;54.80;;;;;;5091711;28;20179;-61
2023/08/11 11:51:18;;;;;;;0.00;0.00;;;35.20;54.80;;;;;;5091541;28;20176;-61
2023/08/11 11:53:44;;;;;;;0.00;0.00;;;35.40;54.90;;;;;;5091633;28;20179;-61
2023/08/11 11:56:14;;;;;;;0.00;0.00;;;35.50;54.80;;;;;;5091442;28;20214;-60
2023/08/11 11:58:40;;;;;;;0.00;0.00;;;35.20;54.70;;;;;;5091416;28;20247;-61
2023/08/11 12:01:10;;;;;;;0.00;0.00;;;35.10;54.50;;;;;;5091553;28;20207;-61
2023/08/11 12:03:36;;;;;;;0.00;0.00;;;35.00;52.90;;;;;;5091598;28;20184;-61
2023/08/11 12:06:05;;;;;;;0.00;0.00;;;35.10;54.40;;;;;;5091471;28;20229;-61
2023/08/11 12:08:34;;;;;;;0.10;0.00;;;35.10;53.00;;;;;;5091370;28;20167;-60
2023/08/11 12:11:00;;;;;;;0.00;0.00;;;35.10;54.30;;;;;;5091454;28;20187;-60
2023/08/11 12:13:26;;;;;;;0.00;0.00;;;35.10;52.60;;;;;;5091580;28;20179;-61
2023/08/11 12:15:52;;;;;;;0.25;0.25;;;35.00;54.00;;;;;;5091349;28;20263;-61
2023/08/11 12:18:18;;;;;;;0.00;0.00;;;34.80;52.60;;;;;;5091215;28;20203;-60
2023/08/11 12:20:44;;;;;;;0.10;0.10;;;34.60;53.30;;;;;;5091329;28;20212;-61
2023/08/11 12:23:09;;;;;;;0.00;0.00;;;34.40;53.60;;;;;;5091174;28;20278;-60
2023/08/11 12:25:35;;;;;;;0.00;0.00;;;34.40;54.20;;;;;;5093965;28;20181;-60
2023/08/11 12:28:02;;;;;;;0.00;0.00;;;34.50;53.90;;;;;;5094737;28;20215;-60
2023/08/11 12:30:28;;;;;;;0.00;0.00;;;34.50;53.90;;;;;;5095127;28;20262;-60
2023/08/11 12:32:54;;;;;;;0.00;0.00;;;34.40;54.70;;;;;;5094929;28;20206;-60
2023/08/11 12:35:20;;;;;;;0.00;0.00;;;34.30;53.40;;;;;;5094835;28;20666;-60
2023/08/11 12:37:46;;;;;;;0.00;0.00;;;34.20;54.50;;;;;;5095058;28;20209;-60
2023/08/11 12:40:12;;;;;;;0.00;0.00;;;34.20;55.50;;;;;;5094617;28;20194;-61
2023/08/11 12:42:38;;;;;;;0.00;0.00;;;34.10;56.00;;;;;;5094799;28;20258;-60
2023/08/11 12:45:04;;;;;;;0.20;0.20;;;34.20;54.70;;;;;;5094638;28;20218;-61